Time;durP1;ratioP1;P1;durP2;ratioP2;P2;SDS_P1;SDS_P2;PMS_P1;PMS_P2;Temp;Humidity;BMP_temperature;BMP_pressure;BME280_temperature;BME280_humidity;BME280_pressure;Samples;Min_cycle;Max_cycle;Signal;HPM_P1;HPM_P2
2021/12/15 00:01:46;;;;;;;;;;;;;;;6.76;100.00;102050.22;5004384;28;1355;-73
2021/12/15 00:04:14;;;;;;;;;;;;;;;6.76;100.00;102049.34;5000324;28;1441;-75
2021/12/15 00:06:40;;;;;;;;;;;;;;;6.75;100.00;102042.19;4999683;28;1403;-74
2021/12/15 00:09:09;;;;;;;;;;;;;;;6.75;100.00;102048.47;4999204;28;1454;-74
2021/12/15 00:11:37;;;;;;;;;;;;;;;6.75;100.00;102037.69;5015987;28;1979;-75
2021/12/15 00:14:04;;;;;;;;;;;;;;;6.73;100.00;102039.56;5000042;28;1149;-74
2021/12/15 00:16:31;;;;;;;;;;;;;;;6.72;100.00;102040.50;4999805;28;1392;-73
2021/12/15 00:18:57;;;;;;;;;;;;;;;6.72;100.00;102043.22;5000160;28;1391;-73
2021/12/15 00:21:24;;;;;;;;;;;;;;;6.71;100.00;102044.16;5001588;28;1186;-72
2021/12/15 00:23:50;;;;;;;;;;;;;;;6.70;100.00;102045.97;5002524;28;1137;-74
2021/12/15 00:26:17;;;;;;;;;;;;;;;6.73;100.00;102044.94;4999177;28;1491;-72
2021/12/15 00:28:45;;;;;;;;;;;;;;;6.72;100.00;102043.22;4998527;28;1192;-73
2021/12/15 00:31:12;;;;;;;;;;;;;;;6.70;100.00;102042.38;4998410;28;1163;-74
2021/12/15 00:33:40;;;;;;;;;;;;;;;6.70;100.00;102051.34;4998868;28;1989;-73
2021/12/15 00:36:07;;;;;;;;;;;;;;;6.72;100.00;102042.31;4998391;28;1473;-73
2021/12/15 00:38:34;;;;;;;;;;;;;;;6.72;100.00;102048.63;4999054;28;1302;-73
2021/12/15 00:41:00;;;;;;;;;;;;;;;6.73;100.00;102047.66;4998679;28;1160;-73
2021/12/15 00:43:26;;;;;;;;;;;;;;;6.69;100.00;102051.44;4998939;28;1258;-73
2021/12/15 00:45:54;;;;;;;;;;;;;;;6.72;100.00;102059.41;4998003;28;1447;-73
2021/12/15 00:48:21;;;;;;;;;;;;;;;6.73;100.00;102047.66;4998739;28;1138;-74
2021/12/15 00:50:48;;;;;;;;;;;;;;;6.74;100.00;102048.53;4998707;28;1157;-73
2021/12/15 00:53:14;;;;;;;;;;;;;;;6.74;100.00;102060.19;4998680;28;1990;-74
2021/12/15 00:55:43;;;;;;;;;;;;;;;6.75;100.00;102053.88;4998381;28;1494;-73
2021/12/15 00:58:10;;;;;;;;;;;;;;;6.77;100.00;102053.78;4998698;28;1208;-74
2021/12/15 01:00:39;;;;;;;;;;;;;;;6.74;100.00;102057.50;4998401;28;1234;-73
2021/12/15 01:03:07;;;;;;;;;;;;;;;6.73;100.00;102061.13;4998540;28;1228;-72
2021/12/15 01:05:35;;;;;;;;;;;;;;;6.74;100.00;102057.50;4997278;28;1427;-73
2021/12/15 01:08:15;;;;;;;;;;;;;;;6.74;100.00;102070.13;5014996;28;1165;-73
2021/12/15 01:10:56;;;;;;;;;;;;;;;6.70;100.00;102064.84;4998207;28;1145;-73
2021/12/15 01:21:38;;;;;;;;;;;;;;;6.67;100.00;102072.22;5014162;28;1468;-73
2021/12/15 01:24:05;;;;;;;;;;;;;;;6.67;100.00;102077.63;5017868;28;1298;-73
2021/12/15 01:26:31;;;;;;;;;;;;;;;6.69;100.00;102075.72;4997669;28;1490;-73
2021/12/15 01:28:58;;;;;;;;;;;;;;;6.71;100.00;102079.22;4998469;28;1172;-74
2021/12/15 01:31:24;;;;;;;;;;;;;;;6.69;100.00;102078.41;4998245;28;1177;-74
2021/12/15 01:33:50;;;;;;;;;;;;;;;6.72;100.00;102078.31;4998109;28;1910;-74
2021/12/15 01:36:18;;;;;;;;;;;;;;;6.71;100.00;102079.22;4997497;28;1455;-73
2021/12/15 01:38:46;;;;;;;;;;;;;;;6.68;100.00;102079.34;5014192;28;1168;-73
2021/12/15 01:41:19;;;;;;;;;;;;;;;6.70;100.00;102072.94;5013934;28;1370;-73
2021/12/15 01:46:51;;;;;;;;;;;;;;;6.73;100.00;102080.03;5013532;28;1140;-73
2021/12/15 01:46:54;;;;;;;;;;;;;;;6.71;100.00;102073.84;4978372;28;1281;-73
2021/12/15 01:49:22;;;;;;;;;;;;;;;6.73;100.00;102074.63;4978153;28;1125;-72
2021/12/15 01:51:50;;;;;;;;;;;;;;;6.74;100.00;102072.81;4978514;28;1160;-73
2021/12/15 01:54:18;;;;;;;;;;;;;;;6.73;100.00;102071.06;4982706;28;1910;-71
2021/12/15 01:56:45;;;;;;;;;;;;;;;6.71;100.00;102068.44;4997738;28;1307;-74
2021/12/15 01:59:12;;;;;;;;;;;;;;;6.70;100.00;102069.38;4997565;28;1307;-74
2021/12/15 02:01:39;;;;;;;;;;;;;;;6.72;100.00;102067.50;5014367;28;1551;-75
2021/12/15 02:04:07;;;;;;;;;;;;;;;6.72;100.00;102070.22;4997198;28;1395;-73
2021/12/15 02:06:33;;;;;;;;;;;;;;;6.68;100.00;102069.44;4997426;28;1487;-74
2021/12/15 02:09:01;;;;;;;;;;;;;;;6.68;100.00;102064.06;4997749;28;1276;-74
2021/12/15 02:11:28;;;;;;;;;;;;;;;6.67;100.00;102059.59;4997382;28;1124;-73
2021/12/15 02:13:55;;;;;;;;;;;;;;;6.70;100.00;102061.28;4997032;28;1989;-74
2021/12/15 02:16:21;;;;;;;;;;;;;;;6.68;100.00;102063.16;4997121;28;1348;-74
2021/12/15 02:18:48;;;;;;;;;;;;;;;6.68;100.00;102063.16;5014087;28;1380;-74
2021/12/15 02:21:18;;;;;;;;;;;;;;;6.68;100.00;102063.16;4997178;28;1334;-74
2021/12/15 02:23:50;;;;;;;;;;;;;;;6.70;100.00;102058.59;4997476;28;1447;-74
2021/12/15 02:26:20;;;;;;;;;;;;;;;6.69;100.00;102070.31;4997680;28;1326;-73
2021/12/15 02:28:48;;;;;;;;;;;;;;;6.69;100.00;102064.91;4997427;28;1161;-72
2021/12/15 02:31:21;;;;;;;;;;;;;;;6.69;100.00;102075.72;4997071;28;1192;-74
2021/12/15 02:34:00;;;;;;;;;;;;;;;6.68;100.00;102073.94;4996650;28;1922;-73
2021/12/15 02:39:15;;;;;;;;;;;;;;;6.67;100.00;102072.22;5013975;28;1268;-74
2021/12/15 02:41:42;;;;;;;;;;;;;;;6.67;100.00;102074.91;4997943;28;1168;-74
2021/12/15 02:44:09;;;;;;;;;;;;;;;6.68;100.00;102069.44;5008180;28;1573;-74
2021/12/15 02:46:37;;;;;;;;;;;;;;;6.70;100.00;102074.78;4997550;28;1320;-76
2021/12/15 02:49:04;;;;;;;;;;;;;;;6.68;100.00;102079.34;4997387;28;1223;-74
2021/12/15 02:51:32;;;;;;;;;;;;;;;6.70;100.00;102077.47;4996912;28;1211;-74
2021/12/15 02:53:59;;;;;;;;;;;;;;;6.67;100.00;102070.38;4997791;28;1916;-74
2021/12/15 02:56:26;;;;;;;;;;;;;;;6.68;100.00;102076.66;5000963;28;1285;-74
2021/12/15 02:58:57;;;;;;;;;;;;;;;6.69;100.00;102081.09;5001061;28;1169;-73
2021/12/15 03:01:32;;;;;;;;;;;;;;;6.68;100.00;102085.63;5000679;28;1176;-73
2021/12/15 03:04:13;;;;;;;;;;;;;;;6.70;100.00;102082.88;5000536;28;1415;-73
2021/12/15 03:06:50;;;;;;;;;;;;;;;6.69;100.00;102086.50;5017096;28;1377;-73
2021/12/15 03:15:17;;;;;;;;;;;;;;;6.69;100.00;102081.09;5000511;28;1317;-73
2021/12/15 03:17:41;;;;;;;;;;;;;;;6.71;100.00;102076.53;5000272;28;1136;-74
2021/12/15 03:20:09;;;;;;;;;;;;;;;6.70;100.00;102069.38;5000296;28;1128;-74
2021/12/15 03:22:37;;;;;;;;;;;;;;;6.71;100.00;102068.44;4999777;28;1562;-74
2021/12/15 03:25:05;;;;;;;;;;;;;;;6.70;100.00;102072.06;5015810;28;1582;-74
2021/12/15 03:33:35;;;;;;;;;;;;;;;6.71;100.00;102060.34;4953148;28;1980;-72
2021/12/15 03:36:06;;;;;;;;;;;;;;;6.72;100.00;102064.81;4996661;28;1321;-73
2021/12/15 03:38:34;;;;;;;;;;;;;;;6.72;100.00;102059.41;5000429;28;1507;-73
2021/12/15 03:41:01;;;;;;;;;;;;;;;6.70;100.00;102061.28;4999883;28;1272;-74
2021/12/15 03:43:28;;;;;;;;;;;;;;;6.72;100.00;102054.00;4999178;28;1312;-74
2021/12/15 03:45:55;;;;;;;;;;;;;;;6.72;100.00;102048.63;4999891;28;1433;-74
2021/12/15 03:48:24;;;;;;;;;;;;;;;6.71;100.00;102063.03;4999960;28;1129;-73
2021/12/15 03:50:50;;;;;;;;;;;;;;;6.67;100.00;102056.03;5015990;28;1341;-73
2021/12/15 03:53:18;;;;;;;;;;;;;;;6.67;100.00;102059.59;4999683;28;1983;-73
2021/12/15 03:55:45;;;;;;;;;;;;;;;6.65;100.00;102052.50;4999842;28;1389;-74
2021/12/15 03:58:14;;;;;;;;;;;;;;;6.66;100.00;102054.28;4999334;28;1498;-73
2021/12/15 04:00:42;;;;;;;;;;;;;;;6.67;100.00;102058.72;4999303;28;1149;-73
2021/12/15 04:03:16;;;;;;;;;;;;;;;6.67;100.00;102061.44;4999951;28;1171;-73
2021/12/15 04:05:42;;;;;;;;;;;;;;;6.67;100.00;102059.59;4998643;28;1523;-73
2021/12/15 04:08:09;;;;;;;;;;;;;;;6.72;100.00;102059.41;4999593;28;1177;-73
2021/12/15 04:10:36;;;;;;;;;;;;;;;6.70;100.00;102066.69;4998752;28;1542;-72
2021/12/15 04:13:04;;;;;;;;;;;;;;;6.70;100.00;102061.28;4999558;28;1922;-74
2021/12/15 04:15:42;;;;;;;;;;;;;;;6.70;100.00;102062.16;4999429;28;1391;-74
2021/12/15 04:18:08;;;;;;;;;;;;;;;6.72;100.00;102069.31;4999102;28;1149;-74
2021/12/15 04:20:36;;;;;;;;;;;;;;;6.72;100.00;102064.81;4998716;28;1518;-75
2021/12/15 04:23:04;;;;;;;;;;;;;;;6.72;100.00;102062.09;4999201;28;1240;-73
2021/12/15 04:25:32;;;;;;;;;;;;;;;6.74;100.00;102062.91;4998922;28;1312;-74
2021/12/15 04:28:01;;;;;;;;;;;;;;;6.73;100.00;102049.47;4999128;28;1254;-74
2021/12/15 04:30:29;;;;;;;;;;;;;;;6.70;100.00;102054.06;4998305;28;1507;-73
2021/12/15 04:32:57;;;;;;;;;;;;;;;6.74;100.00;102062.91;4999071;28;1914;-74
2021/12/15 04:35:23;;;;;;;;;;;;;;;6.75;100.00;102063.75;4999131;28;1326;-74
2021/12/15 04:37:51;;;;;;;;;;;;;;;6.77;100.00;102065.47;4998822;28;1275;-74
2021/12/15 04:40:18;;;;;;;;;;;;;;;6.75;100.00;102070.06;4998640;28;1220;-73
2021/12/15 04:42:45;;;;;;;;;;;;;;;6.77;100.00;102076.25;4999195;28;1466;-74
2021/12/15 04:45:13;;;;;;;;;;;;;;;6.78;100.00;102087.94;4998514;28;1407;-73
2021/12/15 04:47:41;;;;;;;;;;;;;;;6.76;100.00;102088.00;4998812;28;1181;-74
2021/12/15 04:50:08;;;;;;;;;;;;;;;6.75;100.00;102083.56;4998792;28;1137;-74
2021/12/15 04:52:35;;;;;;;;;;;;;;;6.77;100.00;102084.34;5033221;28;908;-73
2021/12/15 04:55:02;;;;;;;;;;;;;;;6.76;100.00;102093.41;4998732;28;1991;-74
2021/12/15 04:57:29;;;;;;;;;;;;;;;6.73;100.00;102082.72;4998587;28;1364;-73
2021/12/15 04:59:56;;;;;;;;;;;;;;;6.74;100.00;102086.31;4998980;28;1308;-74
2021/12/15 05:02:23;;;;;;;;;;;;;;;6.75;100.00;102082.66;4998782;28;1141;-74
2021/12/15 05:04:51;;;;;;;;;;;;;;;6.75;100.00;102085.34;4998434;28;1127;-71
2021/12/15 05:07:19;;;;;;;;;;;;;;;6.75;100.00;102078.16;4997944;28;1364;-73
2021/12/15 05:09:49;;;;;;;;;;;;;;;6.73;100.00;102082.72;4998285;28;1238;-73
2021/12/15 05:12:16;;;;;;;;;;;;;;;6.72;100.00;102083.69;4998372;28;1227;-73
2021/12/15 05:14:42;;;;;;;;;;;;;;;6.74;100.00;102089.03;4997992;28;1979;-74
2021/12/15 05:17:09;;;;;;;;;;;;;;;6.73;100.00;102092.66;4997812;28;1388;-73
2021/12/15 05:19:35;;;;;;;;;;;;;;;6.74;100.00;102095.28;4998071;28;1141;-74
2021/12/15 05:22:05;;;;;;;;;;;;;;;6.74;100.00;102105.22;4998150;28;1353;-74
2021/12/15 05:24:31;;;;;;;;;;;;;;;6.75;100.00;102107.84;5015604;28;1538;-74
2021/12/15 05:26:59;;;;;;;;;;;;;;;6.76;100.00;102101.50;4997746;28;1639;-73
2021/12/15 05:29:25;;;;;;;;;;;;;;;6.77;100.00;102108.63;4998366;28;1420;-73
2021/12/15 05:31:52;;;;;;;;;;;;;;;6.76;100.00;102109.59;4997938;28;1205;-71
2021/12/15 05:34:20;;;;;;;;;;;;;;;6.77;100.00;102111.34;4997819;28;1979;-74
2021/12/15 05:36:46;;;;;;;;;;;;;;;6.78;100.00;102106.84;4997456;28;1542;-74
2021/12/15 05:39:14;;;;;;;;;;;;;;;6.79;100.00;102117.56;4997921;28;1174;-73
2021/12/15 05:41:40;;;;;;;;;;;;;;;6.79;100.00;102117.56;5014346;28;1150;-72
2021/12/15 05:44:07;;;;;;;;;;;;;;;6.80;100.00;102116.63;4998111;28;1169;-73
2021/12/15 05:46:34;;;;;;;;;;;;;;;6.80;100.00;102113.03;4997708;28;1322;-74
2021/12/15 05:49:00;;;;;;;;;;;;;;;6.81;100.00;102118.34;4997744;28;1124;-74
2021/12/15 05:51:27;;;;;;;;;;;;;;;6.81;100.00;102118.34;4995785;28;1491;-74
2021/12/15 05:53:53;;;;;;;;;;;;;;;6.83;100.00;102123.72;4997060;28;1914;-74
2021/12/15 05:56:21;;;;;;;;;;;;;;;6.84;100.00;102125.44;4987988;28;1446;-74
2021/12/15 05:58:48;;;;;;;;;;;;;;;6.85;100.00;102119.09;4978029;28;1232;-73
2021/12/15 06:01:15;;;;;;;;;;;;;;;6.84;100.00;102129.03;4980073;28;1561;-74
2021/12/15 06:03:41;;;;;;;;;;;;;;;6.84;100.00;102118.25;4994089;28;1356;-74
2021/12/15 06:06:08;;;;;;;;;;;;;;;6.85;100.00;102121.81;4994401;28;1392;-74
2021/12/15 06:08:35;;;;;;;;;;;;;;;6.84;100.00;102128.13;4997466;28;1364;-74
2021/12/15 06:11:02;;;;;;;;;;;;;;;6.83;100.00;102129.13;4997517;28;1363;-74
2021/12/15 06:13:30;;;;;;;;;;;;;;;6.84;100.00;102125.44;4997175;28;1890;-74
2021/12/15 06:15:58;;;;;;;;;;;;;;;6.84;100.00;102129.03;5013795;28;1336;-74
2021/12/15 06:18:25;;;;;;;;;;;;;;;6.87;100.00;102131.59;4997594;28;1260;-74
2021/12/15 06:20:53;;;;;;;;;;;;;;;6.87;100.00;102128.91;5003661;28;1340;-73
2021/12/15 06:23:21;;;;;;;;;;;;;;;6.89;100.00;102131.53;4997414;28;1435;-74
2021/12/15 06:25:48;;;;;;;;;;;;;;;6.90;100.00;102127.03;4998236;28;1384;-74
2021/12/15 06:28:15;;;;;;;;;;;;;;;6.87;100.00;102123.50;5013827;28;1280;-75
2021/12/15 06:30:44;;;;;;;;;;;;;;;6.88;100.00;102124.38;5001236;28;1270;-73
2021/12/15 06:33:11;;;;;;;;;;;;;;;6.87;100.00;102123.50;5000653;28;1463;-73
2021/12/15 06:35:37;;;;;;;;;;;;;;;6.84;100.00;102120.03;4988751;28;1975;-73
2021/12/15 06:38:04;;;;;;;;;;;;;;;6.83;100.00;102121.88;4996430;28;1220;-75
2021/12/15 06:40:30;;;;;;;;;;;;;;;6.85;100.00;102129.91;4998744;28;1231;-74
2021/12/15 06:42:57;;;;;;;;;;;;;;;6.87;100.00;102126.19;5000544;28;1405;-73
2021/12/15 06:45:31;;;;;;;;;;;;;;;6.87;100.00;102122.63;4998333;28;1451;-72
2021/12/15 06:58:55;;;;;;;;;;;;;;;6.91;100.00;102128.75;5006269;28;2236;-73
2021/12/15 07:01:21;;;;;;;;;;;;;;;6.93;100.00;102137.69;4997212;28;1642;-74
2021/12/15 07:03:50;;;;;;;;;;;;;;;6.94;100.00;102134.03;4999222;28;1464;-71
2021/12/15 07:06:16;;;;;;;;;;;;;;;6.94;100.00;102134.03;4997230;28;1384;-70
2021/12/15 07:08:43;;;;;;;;;;;;;;;6.95;100.00;102141.16;5016233;23;3572;-75
2021/12/15 07:11:09;;;;;;;;;;;;;;;6.96;100.00;102140.22;5000138;28;1464;-76
2021/12/15 07:13:37;;;;;;;;;;;;;;;6.96;100.00;102148.34;4996827;28;1970;-74
2021/12/15 07:16:07;;;;;;;;;;;;;;;6.96;100.00;102142.94;4999773;28;1531;-75
2021/12/15 07:18:43;;;;;;;;;;;;;;;6.96;100.00;102153.72;5016085;28;1424;-76
2021/12/15 07:21:16;;;;;;;;;;;;;;;6.99;100.00;102159.03;5012769;28;1282;-73
2021/12/15 07:23:44;;;;;;;;;;;;;;;7.03;100.00;102160.66;5026976;28;1258;-73
2021/12/15 07:26:11;;;;;;;;;;;;;;;7.01;100.00;102166.09;5000840;28;1248;-74
2021/12/15 07:28:38;;;;;;;;;;;;;;;7.04;100.00;102167.78;5002166;28;1587;-73
2021/12/15 07:31:04;;;;;;;;;;;;;;;7.04;100.00;102162.38;5002630;28;1384;-72
2021/12/15 07:33:31;;;;;;;;;;;;;;;7.03;100.00;102163.34;5001006;28;1307;-71
2021/12/15 07:35:58;;;;;;;;;;;;;;;7.02;100.00;102165.16;5001186;28;1914;-74
2021/12/15 07:38:26;;;;;;;;;;;;;;;7.02;100.00;102159.75;5001572;28;1306;-73
2021/12/15 07:40:53;;;;;;;;;;;;;;;7.06;100.00;102167.72;4999270;28;1295;-74
2021/12/15 07:43:24;;;;;;;;;;;;;;;7.08;100.00;102161.31;5036640;28;1223;-74
2021/12/15 07:45:52;;;;;;;;;;;;;;;7.09;100.00;102167.59;5004587;28;1566;-74
2021/12/15 07:48:20;;;;;;;;;;;;;;;7.11;100.00;102168.38;4996476;28;1600;-74
2021/12/15 07:50:49;;;;;;;;;;;;;;;7.12;100.00;102175.53;5006274;28;1524;-74
2021/12/15 07:53:18;;;;;;;;;;;;;;;7.11;100.00;102169.28;5022338;28;1538;-75
2021/12/15 07:55:46;;;;;;;;;;;;;;;7.11;100.00;102163.88;5006384;28;1891;-75
2021/12/15 07:58:12;;;;;;;;;;;;;;;7.13;100.00;102175.47;5015052;28;1581;-74
2021/12/15 08:00:40;;;;;;;;;;;;;;;7.14;100.00;102179.06;5019049;28;1374;-77
2021/12/15 08:03:07;;;;;;;;;;;;;;;7.16;100.00;102169.06;5005355;28;1200;-77
2021/12/15 08:05:34;;;;;;;;;;;;;;;7.19;100.00;102182.47;5007834;28;1164;-76
2021/12/15 08:08:02;;;;;;;;;;;;;;;7.23;100.00;102184.06;5007286;28;1189;-75
2021/12/15 08:10:29;;;;;;;;;;;;;;;7.23;100.00;102186.78;5001859;28;1436;-77
2021/12/15 08:12:56;;;;;;;;;;;;;;;7.26;100.00;102192.03;5003310;28;1337;-78
2021/12/15 08:15:23;;;;;;;;;;;;;;;7.29;100.00;102194.59;4995878;28;1918;-78
2021/12/15 08:17:51;;;;;;;;;;;;;;;7.29;100.00;102189.19;5002047;28;1158;-77
2021/12/15 08:20:20;;;;;;;;;;;;;;;7.30;100.00;102195.50;5011016;28;1319;-77
2021/12/15 08:22:46;;;;;;;;;;;;;;;7.30;100.00;102193.66;5001486;28;1430;-76
2021/12/15 08:25:15;;;;;;;;;;;;;;;7.27;100.00;102193.78;5001769;28;1341;-77
2021/12/15 08:27:41;;;;;;;;;;;;;;;7.30;100.00;102195.50;5012116;28;1510;-76
2021/12/15 08:30:11;;;;;;;;;;;;;;;7.31;100.00;102198.13;5000071;28;1334;-75
2021/12/15 08:32:38;;;;;;;;;;;;;;;7.31;100.00;102200.81;5000330;28;1586;-76
2021/12/15 08:35:05;;;;;;;;;;;;;;;7.34;100.00;102208.78;4999869;28;1914;-77
2021/12/15 08:37:32;;;;;;;;;;;;;;;7.33;100.00;102203.44;5032885;28;1519;-75
2021/12/15 08:39:58;;;;;;;;;;;;;;;7.32;100.00;102199.88;4997861;28;1594;-75
2021/12/15 08:42:25;;;;;;;;;;;;;;;7.33;100.00;102209.72;4989320;28;1545;-75
2021/12/15 08:44:51;;;;;;;;;;;;;;;7.34;100.00;102207.91;4995338;28;1515;-75
2021/12/15 08:47:19;;;;;;;;;;;;;;;7.36;100.00;102216.81;4979301;28;1145;-77
2021/12/15 08:49:46;;;;;;;;;;;;;;;7.36;100.00;102216.81;5005298;28;1507;-75
2021/12/15 08:52:13;;;;;;;;;;;;;;;7.36;100.00;102208.69;4997922;28;1515;-74
2021/12/15 08:54:39;;;;;;;;;;;;;;;7.34;100.00;102213.31;4998546;28;1910;-76
2021/12/15 08:57:07;;;;;;;;;;;;;;;7.34;100.00;102213.31;4991242;28;1348;-77
2021/12/15 08:59:34;;;;;;;;;;;;;;;7.35;100.00;102206.97;4982488;28;1483;-76
2021/12/15 09:02:00;;;;;;;;;;;;;;;7.36;100.00;102208.69;5004337;28;1280;-75
2021/12/15 09:04:28;;;;;;;;;;;;;;;7.40;100.00;102218.44;5015929;28;1263;-77
2021/12/15 09:06:55;;;;;;;;;;;;;;;7.38;100.00;102210.41;5013293;28;1446;-76
2021/12/15 09:09:22;;;;;;;;;;;;;;;7.40;100.00;102215.72;4998161;28;1403;-77
2021/12/15 09:11:49;;;;;;;;;;;;;;;7.45;100.00;102213.69;5015439;28;1560;-76
2021/12/15 09:14:16;;;;;;;;;;;;;;;7.45;100.00;102221.81;5000325;28;1914;-78
2021/12/15 09:16:44;;;;;;;;;;;;;;;7.47;100.00;102216.34;4989814;28;1471;-76
2021/12/15 09:19:11;;;;;;;;;;;;;;;7.45;100.00;102215.53;5013348;28;1404;-77
2021/12/15 09:21:42;;;;;;;;;;;;;;;7.45;100.00;102210.13;5002926;28;1946;-76
2021/12/15 09:24:08;;;;;;;;;;;;;;;7.49;100.00;102214.44;5020585;28;1493;-78
2021/12/15 09:26:35;;;;;;;;;;;;;;;7.48;100.00;102210.88;5006172;28;1419;-78
2021/12/15 09:29:02;;;;;;;;;;;;;;;7.51;100.00;102210.75;5026529;28;1408;-75
2021/12/15 09:31:29;;;;;;;;;;;;;;;7.53;100.00;102216.06;5013804;28;1265;-76
2021/12/15 09:33:57;;;;;;;;;;;;;;;7.54;100.00;102217.84;5026923;28;1114;-76
2021/12/15 09:36:25;;;;;;;;;;;;;;;7.54;100.00;102210.59;5020724;28;1989;-75
2021/12/15 09:38:55;;;;;;;;;;;;;;;7.57;100.00;102211.41;5022152;28;1538;-76
2021/12/15 09:41:23;;;;;;;;;;;;;;;7.59;100.00;102206.81;5041423;28;1030;-76
2021/12/15 09:43:51;;;;;;;;;;;;;;;7.60;100.00;102209.44;5006266;28;1392;-76
2021/12/15 09:46:30;;;;;;;;;;;;;;;7.63;100.00;102208.41;5022492;28;1494;-76
2021/12/15 09:57:24;;;;;;;;;;;;;;;7.64;100.00;102210.19;4992052;28;1292;-75
2021/12/15 10:02:49;;;;;;;;;;;;;;;7.70;100.00;102202.66;4994044;28;1046;-77
2021/12/15 10:05:43;;;;;;;;;;;;;;;7.71;100.00;102199.03;4982021;28;1501;-76
2021/12/15 10:11:20;;;;;;;;;;;;;;;7.70;100.00;102193.69;4995128;28;1455;-75
2021/12/15 10:19:22;;;;;;;;;;;;;;;7.81;100.00;102196.75;5019218;28;1334;-76
2021/12/15 10:21:57;;;;;;;;;;;;;;;7.79;100.00;102197.78;5002897;28;1471;-75
2021/12/15 10:24:26;;;;;;;;;;;;;;;7.81;100.00;102193.19;4996256;28;1658;-77
2021/12/15 10:26:59;;;;;;;;;;;;;;;7.80;100.00;102197.75;4996444;28;1558;-78
2021/12/15 10:29:25;;;;;;;;;;;;;;;7.80;100.00;102197.75;4988627;28;1499;-76
2021/12/15 10:31:57;;;;;;;;;;;;;;;7.78;100.00;102201.47;4994731;28;1272;-75
2021/12/15 10:34:24;;;;;;;;;;;;;;;7.76;100.00;102182.56;5003433;28;1349;-76
2021/12/15 10:36:51;;;;;;;;;;;;;;;7.77;100.00;102187.03;5022704;28;1918;-76
2021/12/15 10:39:19;;;;;;;;;;;;;;;7.75;100.00;102185.34;5017707;28;1594;-77
2021/12/15 10:41:45;;;;;;;;;;;;;;;7.71;100.00;102190.06;5014135;28;1704;-76
2021/12/15 10:44:14;;;;;;;;;;;;;;;7.72;100.00;102191.78;5006274;28;1440;-78
2021/12/15 10:46:42;;;;;;;;;;;;;;;7.69;100.00;102190.09;4992221;28;1339;-75
2021/12/15 10:49:11;;;;;;;;;;;;;;;7.65;100.00;102190.31;4977098;28;1324;-77
2021/12/15 10:51:41;;;;;;;;;;;;;;;7.62;100.00;102187.75;4977070;28;1342;-77
2021/12/15 10:54:09;;;;;;;;;;;;;;;7.63;100.00;102197.59;4977538;28;1430;-77
2021/12/15 10:56:37;;;;;;;;;;;;;;;7.62;100.00;102196.75;5009474;28;1965;-76
2021/12/15 10:59:05;;;;;;;;;;;;;;;7.62;100.00;102193.16;4990755;28;1507;-77
2021/12/15 11:01:45;;;;;;;;;;;;;;;7.63;100.00;102186.78;4995582;28;1293;-74
2021/12/15 11:04:29;;;;;;;;;;;;;;;7.67;100.00;102193.81;4994567;28;1521;-76
2021/12/15 11:07:10;;;;;;;;;;;;;;;7.69;100.00;102194.63;4997360;28;1494;-75
2021/12/15 11:09:39;;;;;;;;;;;;;;;7.70;100.00;102194.56;5032794;28;1404;-75
2021/12/15 11:12:09;;;;;;;;;;;;;;;7.73;100.00;102198.94;5035349;28;911;-75
2021/12/15 11:14:36;;;;;;;;;;;;;;;7.75;100.00;102196.16;5031635;28;1391;-76
2021/12/15 11:17:12;;;;;;;;;;;;;;;7.77;100.00;102197.84;5061919;28;1883;-77
2021/12/15 11:19:47;;;;;;;;;;;;;;;7.81;100.00;102195.91;5048114;28;1357;-76
2021/12/15 11:22:47;;;;;;;;;;;;;;;7.80;100.00;102192.34;5042350;28;1530;-76
2021/12/15 11:25:17;;;;;;;;;;;;;;;7.86;100.00;102191.16;4986294;28;972;-75
2021/12/15 11:27:43;;;;;;;;;;;;;;;7.88;100.00;102191.94;4963945;28;1240;-75
2021/12/15 11:30:12;;;;;;;;;;;;;;;7.88;100.00;102191.94;4983805;28;1342;-75
2021/12/15 11:32:41;;;;;;;;;;;;;;;7.91;100.00;102186.41;5002314;28;1482;-75
2021/12/15 11:35:09;;;;;;;;;;;;;;;7.93;100.00;102187.22;4983770;28;2115;-74
2021/12/15 11:37:43;;;;;;;;;;;;;;;7.94;100.00;102191.69;4997922;28;1189;-75
2021/12/15 11:40:10;;;;;;;;;;;;;;;7.97;100.00;102180.69;5010940;28;1333;-74
2021/12/15 11:42:38;;;;;;;;;;;;;;;8.00;100.00;102185.09;5005289;28;1208;-75
2021/12/15 11:45:06;;;;;;;;;;;;;;;7.98;100.00;102181.59;5001856;28;1150;-75
2021/12/15 11:47:33;;;;;;;;;;;;;;;8.02;100.00;102178.66;5003330;28;1479;-76
2021/12/15 11:50:07;;;;;;;;;;;;;;;8.06;100.00;102171.28;5008934;28;1407;-75
2021/12/15 11:52:38;;;;;;;;;;;;;;;8.13;100.00;102180.00;4999476;28;1614;-77
2021/12/15 11:55:07;;;;;;;;;;;;;;;8.16;100.00;102177.13;5004538;28;1914;-74
2021/12/15 11:57:33;;;;;;;;;;;;;;;8.18;100.00;102173.41;5011837;28;1483;-75
2021/12/15 12:00:05;;;;;;;;;;;;;;;8.24;100.00;102171.34;5023214;28;2524;-76
2021/12/15 12:02:38;;;;;;;;;;;;;;;8.20;100.00;102166.09;5023753;28;1263;-77
2021/12/15 12:05:09;;;;;;;;;;;;;;;8.23;100.00;102165.09;5021336;28;1163;-76
2021/12/15 12:07:37;;;;;;;;;;;;;;;8.27;100.00;102168.50;5011600;28;1181;-78
2021/12/15 12:10:06;;;;;;;;;;;;;;;8.24;100.00;102156.00;5026298;28;1415;-76
2021/12/15 12:12:38;;;;;;;;;;;;;;;8.26;100.00;102155.91;5006917;28;1359;-77
2021/12/15 12:15:06;;;;;;;;;;;;;;;8.33;100.00;102154.69;5026052;28;1966;-77
2021/12/15 12:17:34;;;;;;;;;;;;;;;8.31;100.00;102156.56;5028080;28;998;-77
2021/12/15 12:20:04;;;;;;;;;;;;;;;8.35;100.00;102156.34;5010010;28;1461;-77
2021/12/15 12:22:33;;;;;;;;;;;;;;;8.36;100.00;102151.81;5024487;28;1481;-77
2021/12/15 12:25:01;;;;;;;;;;;;;;;8.32;100.00;102150.22;5011609;28;1313;-77
2021/12/15 12:27:29;;;;;;;;;;;;;;;8.32;100.00;102155.63;5048705;28;950;-77
2021/12/15 12:29:57;;;;;;;;;;;;;;;8.31;100.00;102151.16;5030941;28;1311;-75
2021/12/15 12:32:23;;;;;;;;;;;;;;;8.29;100.00;102159.34;5025066;28;1383;-76
2021/12/15 12:34:51;;;;;;;;;;;;;;;8.27;100.00;102165.78;5018458;28;1269;-75
2021/12/15 12:37:18;;;;;;;;;;;;;;;8.25;100.00;102157.75;4999723;28;1977;-76
2021/12/15 12:39:48;;;;;;;;;;;;;;;8.24;100.00;102165.94;4999465;28;1432;-75
2021/12/15 12:42:28;;;;;;;;;;;;;;;8.21;100.00;102154.31;4990864;28;1531;-75
2021/12/15 12:45:07;;;;;;;;;;;;;;;8.24;100.00;102156.00;4980089;28;1202;-76
2021/12/15 12:47:40;;;;;;;;;;;;;;;8.24;100.00;102158.69;4979747;28;1114;-76
2021/12/15 12:50:33;;;;;;;;;;;;;;;8.26;100.00;102162.22;5005069;28;1404;-76
2021/12/15 13:01:17;;;;;;;;;;;;;;;8.19;100.00;102168.84;4991944;28;1382;-77
2021/12/15 13:03:48;;;;;;;;;;;;;;;8.16;100.00;102175.31;5009499;28;1562;-75
2021/12/15 13:06:15;;;;;;;;;;;;;;;8.15;100.00;102173.56;5003741;28;1356;-76
2021/12/15 13:08:43;;;;;;;;;;;;;;;8.17;100.00;102170.78;5016342;28;1534;-75
2021/12/15 13:11:16;;;;;;;;;;;;;;;8.19;100.00;102168.84;5013447;28;1432;-75
2021/12/15 13:13:57;;;;;;;;;;;;;;;8.21;100.00;102173.25;4995632;28;1361;-75
2021/12/15 13:16:26;;;;;;;;;;;;;;;8.19;100.00;102166.16;5003039;28;1976;-76
2021/12/15 13:18:54;;;;;;;;;;;;;;;8.17;100.00;102171.63;5017467;28;1547;-75
2021/12/15 13:21:38;;;;;;;;;;;;;;;8.21;100.00;102173.25;5010760;28;1512;-75
2021/12/15 13:24:10;;;;;;;;;;;;;;;8.22;100.00;102168.72;4985883;28;1594;-76
2021/12/15 13:29:35;;;;;;;;;;;;;;;8.23;100.00;102175.91;4980918;28;1318;-76
2021/12/15 13:32:02;;;;;;;;;;;;;;;8.23;100.00;102172.28;5015998;28;1135;-77
2021/12/15 13:34:40;;;;;;;;;;;;;;;8.24;100.00;102168.66;5002509;28;1499;-75
2021/12/15 13:37:07;;;;;;;;;;;;;;;8.25;100.00;102168.56;4990334;28;1965;-76
2021/12/15 13:39:48;;;;;;;;;;;;;;;8.28;100.00;102171.13;4998959;28;1341;-75
2021/12/15 13:42:37;;;;;;;;;;;;;;;8.31;100.00;102172.78;5008717;28;1443;-76
2021/12/15 13:45:04;;;;;;;;;;;;;;;8.33;100.00;102176.31;5007851;28;1224;-77
2021/12/15 13:47:30;;;;;;;;;;;;;;;8.30;100.00;102176.47;5008534;28;1113;-77
2021/12/15 13:49:58;;;;;;;;;;;;;;;8.30;100.00;102179.19;5009049;28;1333;-75
2021/12/15 13:52:32;;;;;;;;;;;;;;;8.30;100.00;102173.78;5007436;28;1376;-76
2021/12/15 13:55:19;;;;;;;;;;;;;;;8.30;100.00;102173.78;5024238;28;1213;-76
2021/12/15 13:57:52;;;;;;;;;;;;;;;8.29;100.00;102175.59;5023941;28;1907;-77
2021/12/15 14:00:21;;;;;;;;;;;;;;;8.27;100.00;102182.91;4996954;28;1475;-76
2021/12/15 14:02:56;;;;;;;;;;;;;;;8.29;100.00;102185.53;5006316;28;1177;-76